Time;durP1;ratioP1;P1;durP2;ratioP2;P2;SDS_P1;SDS_P2;PMS_P1;PMS_P2;Temp;Humidity;BMP_temperature;BMP_pressure;BME280_temperature;BME280_humidity;BME280_pressure;Samples;Min_cycle;Max_cycle;Signal;HPM_P1;HPM_P2
2021/12/15 00:01:17;;;;;;;33.35;18.27;;;;;;;;;;4994768;28;20482;-66
2021/12/15 00:03:43;;;;;;;31.98;17.42;;;;;;;;;;4995038;28;20037;-66
2021/12/15 00:06:17;;;;;;;36.20;19.25;;;;;;;;;;4995231;28;20425;-66
2021/12/15 00:08:44;;;;;;;32.83;18.77;;;;;;;;;;4994597;28;20538;-66
2021/12/15 00:11:11;;;;;;;33.38;18.38;;;;;;;;;;4995165;28;20474;-66
2021/12/15 00:13:37;;;;;;;22.02;15.27;;;;;;;;;;5009424;28;20402;-66
2021/12/15 00:16:04;;;;;;;25.77;16.17;;;;;;;;;;4995271;28;20041;-66
2021/12/15 00:18:31;;;;;;;30.67;17.58;;;;;;;;;;4995118;28;20022;-66
2021/12/15 00:20:57;;;;;;;32.13;18.60;;;;;;;;;;4995285;28;20364;-66
2021/12/15 00:23:23;;;;;;;35.25;18.90;;;;;;;;;;4994902;28;20506;-66
2021/12/15 00:25:49;;;;;;;32.63;18.65;;;;;;;;;;4994673;28;20514;-66
2021/12/15 00:28:15;;;;;;;32.22;19.08;;;;;;;;;;4994565;28;20053;-66
2021/12/15 00:30:42;;;;;;;34.10;19.38;;;;;;;;;;4994871;28;20113;-66
2021/12/15 00:33:09;;;;;;;29.08;16.70;;;;;;;;;;4993511;28;20409;-66
2021/12/15 00:35:36;;;;;;;27.00;14.10;;;;;;;;;;4994286;28;20104;-66
2021/12/15 00:38:03;;;;;;;29.30;15.02;;;;;;;;;;4994729;28;20458;-66
2021/12/15 00:40:29;;;;;;;27.73;16.25;;;;;;;;;;4994659;28;20022;-66
2021/12/15 00:42:56;;;;;;;24.88;15.02;;;;;;;;;;5009144;28;20042;-66
2021/12/15 00:45:23;;;;;;;23.80;12.90;;;;;;;;;;4993372;28;20100;-66
2021/12/15 00:47:52;;;;;;;29.35;14.07;;;;;;;;;;4992388;28;20113;-66
2021/12/15 00:50:19;;;;;;;26.42;14.57;;;;;;;;;;4992529;28;20126;-66
2021/12/15 00:52:46;;;;;;;23.70;13.20;;;;;;;;;;4994195;28;20022;-66
2021/12/15 00:55:14;;;;;;;27.85;15.13;;;;;;;;;;4993220;28;20545;-66
2021/12/15 00:57:40;;;;;;;27.67;15.98;;;;;;;;;;4992407;28;20035;-66
2021/12/15 01:00:08;;;;;;;26.02;15.25;;;;;;;;;;4992421;28;20022;-66
2021/12/15 01:02:34;;;;;;;26.10;13.60;;;;;;;;;;4994352;28;20026;-66
2021/12/15 01:05:00;;;;;;;22.70;14.23;;;;;;;;;;4994051;28;20026;-66
2021/12/15 01:07:26;;;;;;;23.73;13.60;;;;;;;;;;4994264;28;20032;-65
2021/12/15 01:09:57;;;;;;;27.15;13.13;;;;;;;;;;4993348;28;20046;-66
2021/12/15 01:20:44;;;;;;;26.08;14.20;;;;;;;;;;4992568;28;20406;-66
2021/12/15 01:23:13;;;;;;;26.27;13.57;;;;;;;;;;4993707;28;20022;-66
2021/12/15 01:25:45;;;;;;;24.35;14.95;;;;;;;;;;5008637;28;20037;-66
2021/12/15 01:28:12;;;;;;;28.07;16.33;;;;;;;;;;4993607;28;20482;-66
2021/12/15 01:30:40;;;;;;;24.98;14.50;;;;;;;;;;4992508;28;20289;-66
2021/12/15 01:33:06;;;;;;;29.85;15.25;;;;;;;;;;4993552;28;20030;-66
2021/12/15 01:35:32;;;;;;;29.33;15.73;;;;;;;;;;4993483;28;20054;-66
2021/12/15 01:37:59;;;;;;;25.65;15.63;;;;;;;;;;4991680;28;20581;-66
2021/12/15 01:40:37;;;;;;;27.70;14.80;;;;;;;;;;4993738;28;20050;-66
2021/12/15 01:43:12;;;;;;;29.65;15.90;;;;;;;;;;5008437;28;20030;-66
2021/12/15 01:48:23;;;;;;;23.35;13.27;;;;;;;;;;4993609;28;20490;-66
2021/12/15 01:50:50;;;;;;;27.90;15.10;;;;;;;;;;4991889;28;20041;-66
2021/12/15 01:53:17;;;;;;;29.42;14.65;;;;;;;;;;4993371;28;20077;-66
2021/12/15 01:55:44;;;;;;;31.70;15.00;;;;;;;;;;4991199;28;20056;-66
2021/12/15 01:58:10;;;;;;;29.52;14.63;;;;;;;;;;4992997;28;20022;-66
2021/12/15 02:00:43;;;;;;;26.40;14.32;;;;;;;;;;4991916;28;20026;-66
2021/12/15 02:03:09;;;;;;;;;;;;;;;;;;4992691;28;20038;-66
2021/12/15 02:05:35;;;;;;;27.65;14.15;;;;;;;;;;4991720;28;19920;-66
2021/12/15 02:08:04;;;;;;;27.77;14.20;;;;;;;;;;5007930;28;20474;-66
2021/12/15 02:10:33;;;;;;;28.17;14.63;;;;;;;;;;4991288;28;20054;-66
2021/12/15 02:13:00;;;;;;;26.40;14.00;;;;;;;;;;4991742;28;20038;-66
2021/12/15 02:15:29;;;;;;;22.70;14.35;;;;;;;;;;4991713;28;20022;-66
2021/12/15 02:17:55;;;;;;;26.77;15.20;;;;;;;;;;4991314;28;20453;-66
2021/12/15 02:20:39;;;;;;;32.67;15.10;;;;;;;;;;4992913;28;20479;-66
2021/12/15 02:23:08;;;;;;;21.13;14.43;;;;;;;;;;4991337;28;20061;-66
2021/12/15 02:25:34;;;;;;;26.70;14.02;;;;;;;;;;4991095;28;20030;-66
2021/12/15 02:28:02;;;;;;;29.10;14.88;;;;;;;;;;4991081;28;20073;-66
2021/12/15 02:30:52;;;;;;;27.27;13.38;;;;;;;;;;4991363;28;20026;-66
2021/12/15 02:38:38;;;;;;;26.48;13.13;;;;;;;;;;4990990;28;20058;-66
2021/12/15 02:41:09;;;;;;;26.10;14.73;;;;;;;;;;4990932;28;20061;-66
2021/12/15 02:43:36;;;;;;;30.33;14.02;;;;;;;;;;4992547;28;20446;-66
2021/12/15 02:46:04;;;;;;;24.00;12.98;;;;;;;;;;4992219;28;20034;-66
2021/12/15 02:48:30;;;;;;;22.30;12.93;;;;;;;;;;4992706;28;20517;-66
2021/12/15 02:50:56;;;;;;;26.38;13.02;;;;;;;;;;4990765;28;20478;-66
2021/12/15 02:53:22;;;;;;;24.67;13.40;;;;;;;;;;4992215;28;20072;-66
2021/12/15 02:55:49;;;;;;;24.50;13.20;;;;;;;;;;4992088;28;20030;-66
2021/12/15 02:58:18;;;;;;;23.90;13.18;;;;;;;;;;4992287;28;20068;-66
2021/12/15 03:00:59;;;;;;;26.75;15.05;;;;;;;;;;4992145;28;20029;-66
2021/12/15 03:06:24;;;;;;;24.60;14.98;;;;;;;;;;4991984;28;20505;-66
2021/12/15 03:17:08;;;;;;;28.17;14.77;;;;;;;;;;4931784;29;20032;-66
2021/12/15 03:19:35;;;;;;;29.52;14.75;;;;;;;;;;4932364;29;20036;-66
2021/12/15 03:22:01;;;;;;;26.58;14.02;;;;;;;;;;4931694;29;20028;-66
2021/12/15 03:24:28;;;;;;;25.98;14.13;;;;;;;;;;4934500;29;20039;-66
2021/12/15 03:27:02;;;;;;;25.00;13.65;;;;;;;;;;4935744;29;20036;-66
2021/12/15 03:35:17;;;;;;;23.05;13.80;;;;;;;;;;4935236;29;20684;-66
2021/12/15 03:37:46;;;;;;;26.92;13.38;;;;;;;;;;4935721;29;20028;-66
2021/12/15 03:40:19;;;;;;;23.45;13.00;;;;;;;;;;4935715;29;20035;-66
2021/12/15 03:42:50;;;;;;;24.48;13.63;;;;;;;;;;4968254;28;20057;-66
2021/12/15 03:45:18;;;;;;;20.45;12.57;;;;;;;;;;4979997;28;20080;-66
2021/12/15 03:47:46;;;;;;;22.65;13.05;;;;;;;;;;4995668;28;20058;-66
2021/12/15 03:50:13;;;;;;;23.10;12.73;;;;;;;;;;4995255;28;20089;-66
2021/12/15 03:52:40;;;;;;;21.98;13.10;;;;;;;;;;4995082;28;20037;-66
2021/12/15 03:55:07;;;;;;;30.30;14.20;;;;;;;;;;5010296;28;20066;-66
2021/12/15 03:57:33;;;;;;;24.23;12.45;;;;;;;;;;4995563;28;20030;-66
2021/12/15 04:00:00;;;;;;;24.45;13.63;;;;;;;;;;4994980;28;20117;-66
2021/12/15 04:02:26;;;;;;;22.55;13.63;;;;;;;;;;4994915;28;20033;-66
2021/12/15 04:04:53;;;;;;;24.48;12.63;;;;;;;;;;4994980;28;20088;-66
2021/12/15 04:07:20;;;;;;;23.95;13.00;;;;;;;;;;4993345;28;20014;-66
2021/12/15 04:09:47;;;;;;;23.88;13.10;;;;;;;;;;4995720;28;20033;-66
2021/12/15 04:12:13;;;;;;;23.55;12.63;;;;;;;;;;4995036;28;20030;-66
2021/12/15 04:14:45;;;;;;;25.50;13.95;;;;;;;;;;4994967;28;20517;-66
2021/12/15 04:17:26;;;;;;;23.83;14.05;;;;;;;;;;4994921;28;20030;-66
2021/12/15 04:19:57;;;;;;;21.92;11.95;;;;;;;;;;4994774;28;20038;-66
2021/12/15 04:22:25;;;;;;;27.30;12.45;;;;;;;;;;4992969;28;20030;-66
2021/12/15 04:24:51;;;;;;;24.00;12.48;;;;;;;;;;4995092;28;20509;-66
2021/12/15 04:27:20;;;;;;;20.63;12.85;;;;;;;;;;4994512;28;20038;-66
2021/12/15 04:29:47;;;;;;;24.58;13.00;;;;;;;;;;4994808;28;20441;-66
2021/12/15 04:32:20;;;;;;;23.42;12.85;;;;;;;;;;4994613;28;20038;-66
2021/12/15 04:34:46;;;;;;;26.95;12.65;;;;;;;;;;4994028;28;20054;-66
2021/12/15 04:37:13;;;;;;;19.30;11.75;;;;;;;;;;4993790;28;20117;-66
2021/12/15 04:39:39;;;;;;;23.20;12.05;;;;;;;;;;4994819;28;20481;-66
2021/12/15 04:42:05;;;;;;;24.15;12.02;;;;;;;;;;4994377;28;20026;-66
2021/12/15 04:44:33;;;;;;;20.48;12.15;;;;;;;;;;4994656;28;20520;-66
2021/12/15 04:47:04;;;;;;;20.50;12.15;;;;;;;;;;4994399;28;20027;-66
2021/12/15 04:49:32;;;;;;;24.08;12.57;;;;;;;;;;4994281;28;20033;-66
2021/12/15 04:51:58;;;;;;;21.20;11.98;;;;;;;;;;4994384;28;20030;-66
2021/12/15 04:54:25;;;;;;;19.60;11.88;;;;;;;;;;4994564;28;20113;-66
2021/12/15 04:56:52;;;;;;;22.30;12.68;;;;;;;;;;4994488;28;20081;-66
2021/12/15 04:59:18;;;;;;;22.20;12.40;;;;;;;;;;4993733;28;20030;-66
2021/12/15 05:01:45;;;;;;;24.08;11.68;;;;;;;;;;4994282;28;20479;-66
2021/12/15 05:04:12;;;;;;;24.23;12.38;;;;;;;;;;4993716;28;20074;-66
2021/12/15 05:06:39;;;;;;;21.55;11.77;;;;;;;;;;4994294;28;20498;-66
2021/12/15 05:09:05;;;;;;;23.55;13.15;;;;;;;;;;4993877;28;20030;-66
2021/12/15 05:11:31;;;;;;;20.70;11.98;;;;;;;;;;4994089;28;20390;-66
2021/12/15 05:13:57;;;;;;;22.00;11.95;;;;;;;;;;4994122;28;20037;-66
2021/12/15 05:16:24;;;;;;;20.65;11.40;;;;;;;;;;4993736;28;20026;-66
2021/12/15 05:18:50;;;;;;;22.88;11.65;;;;;;;;;;4993799;28;20110;-66
2021/12/15 05:21:17;;;;;;;22.92;12.70;;;;;;;;;;4993614;28;20039;-66
2021/12/15 05:23:45;;;;;;;23.75;12.40;;;;;;;;;;4993910;28;20054;-66
2021/12/15 05:26:11;;;;;;;19.02;12.02;;;;;;;;;;4993667;28;20517;-66
2021/12/15 05:28:38;;;;;;;22.02;11.75;;;;;;;;;;4993792;28;20030;-66
2021/12/15 05:31:04;;;;;;;22.52;11.93;;;;;;;;;;4994075;28;20040;-66
2021/12/15 05:33:30;;;;;;;21.60;11.57;;;;;;;;;;4993265;28;20038;-66
2021/12/15 05:35:56;;;;;;;17.52;10.32;;;;;;;;;;4993577;28;20125;-66
2021/12/15 05:38:23;;;;;;;27.45;11.70;;;;;;;;;;4993188;28;20053;-66
2021/12/15 05:40:50;;;;;;;26.55;11.85;;;;;;;;;;4993666;28;20061;-66
2021/12/15 05:43:16;;;;;;;25.00;12.15;;;;;;;;;;4993144;28;20518;-66
2021/12/15 05:45:44;;;;;;;21.23;12.27;;;;;;;;;;4992684;28;20081;-66
2021/12/15 05:48:16;;;;;;;19.40;10.95;;;;;;;;;;4990834;28;20034;-66
2021/12/15 05:50:43;;;;;;;24.60;11.50;;;;;;;;;;4991205;28;20486;-66
2021/12/15 05:53:09;;;;;;;19.40;11.48;;;;;;;;;;4991699;28;20065;-66
2021/12/15 05:55:36;;;;;;;23.13;10.68;;;;;;;;;;4990889;28;20030;-66
2021/12/15 05:58:02;;;;;;;22.15;12.68;;;;;;;;;;4991309;28;20442;-66
2021/12/15 06:00:30;;;;;;;19.23;11.00;;;;;;;;;;4993580;28;20030;-66
2021/12/15 06:02:57;;;;;;;19.25;11.25;;;;;;;;;;5001402;28;20030;-66
2021/12/15 06:05:23;;;;;;;20.55;11.43;;;;;;;;;;4991102;28;20414;-66
2021/12/15 06:07:49;;;;;;;21.13;12.57;;;;;;;;;;4992118;28;20034;-66
2021/12/15 06:10:19;;;;;;;19.75;11.45;;;;;;;;;;4992035;28;20398;-66
2021/12/15 06:12:47;;;;;;;17.90;11.07;;;;;;;;;;4991400;28;20113;-66
2021/12/15 06:15:14;;;;;;;21.52;10.70;;;;;;;;;;4991235;28;20108;-66
2021/12/15 06:17:40;;;;;;;18.02;11.43;;;;;;;;;;4990276;28;20027;-66
2021/12/15 06:20:07;;;;;;;20.23;11.55;;;;;;;;;;4990861;28;20022;-66
2021/12/15 06:22:33;;;;;;;18.40;10.98;;;;;;;;;;4990250;28;20384;-66
2021/12/15 06:24:59;;;;;;;24.70;11.38;;;;;;;;;;4989707;28;20022;-66
2021/12/15 06:27:29;;;;;;;16.65;10.43;;;;;;;;;;4990497;28;20027;-66
2021/12/15 06:29:55;;;;;;;22.55;10.77;;;;;;;;;;4991214;28;20040;-66
2021/12/15 06:32:21;;;;;;;20.85;11.30;;;;;;;;;;4990318;28;20402;-66
2021/12/15 06:34:48;;;;;;;17.05;10.57;;;;;;;;;;4989270;28;20433;-66
2021/12/15 06:37:14;;;;;;;26.55;11.75;;;;;;;;;;4989476;28;20026;-65
2021/12/15 06:39:40;;;;;;;23.75;13.02;;;;;;;;;;4985898;28;20027;-65
2021/12/15 06:42:06;;;;;;;23.83;13.55;;;;;;;;;;4989761;28;20076;-64
2021/12/15 06:44:33;;;;;;;22.80;13.07;;;;;;;;;;4991549;28;20030;-64
2021/12/15 06:47:22;;;;;;;24.92;13.32;;;;;;;;;;4990046;28;20048;-64
2021/12/15 06:58:12;;;;;;;28.02;14.73;;;;;;;;;;4978536;28;20038;-65
2021/12/15 07:00:41;;;;;;;28.88;14.20;;;;;;;;;;4997381;28;20069;-65
2021/12/15 07:03:07;;;;;;;25.10;13.80;;;;;;;;;;4999390;28;20030;-65
2021/12/15 07:05:34;;;;;;;22.45;13.40;;;;;;;;;;4996266;28;20041;-64
2021/12/15 07:08:01;;;;;;;27.08;13.43;;;;;;;;;;4996772;28;20033;-64
2021/12/15 07:10:31;;;;;;;24.73;14.10;;;;;;;;;;4995880;28;20045;-64
2021/12/15 07:12:58;;;;;;;27.70;15.52;;;;;;;;;;4996262;28;20057;-64
2021/12/15 07:15:24;;;;;;;26.17;14.05;;;;;;;;;;4998297;28;20126;-64
2021/12/15 07:17:53;;;;;;;23.50;13.90;;;;;;;;;;4988930;28;20018;-64
2021/12/15 07:20:38;;;;;;;24.63;14.05;;;;;;;;;;4985769;28;20045;-64
2021/12/15 07:23:06;;;;;;;21.90;13.75;;;;;;;;;;4992146;28;20041;-64
2021/12/15 07:25:33;;;;;;;25.52;13.63;;;;;;;;;;4994303;28;20471;-64
2021/12/15 07:27:59;;;;;;;23.83;13.82;;;;;;;;;;4996120;28;20045;-64
2021/12/15 07:30:28;;;;;;;23.20;13.63;;;;;;;;;;4996869;28;20057;-65
2021/12/15 07:32:54;;;;;;;21.63;13.13;;;;;;;;;;4996601;28;20120;-65
2021/12/15 07:35:21;;;;;;;26.90;15.27;;;;;;;;;;4994767;28;21673;-65
2021/12/15 07:37:48;;;;;;;23.17;12.65;;;;;;;;;;4995482;28;20022;-65
2021/12/15 07:40:20;;;;;;;23.05;12.75;;;;;;;;;;4997192;28;20520;-65
2021/12/15 07:45:28;;;;;;;23.08;12.45;;;;;;;;;;4991783;28;20050;-65
2021/12/15 07:47:55;;;;;;;22.20;13.18;;;;;;;;;;4994281;28;20085;-65
2021/12/15 07:50:22;;;;;;;20.95;12.40;;;;;;;;;;4995709;28;20034;-65
2021/12/15 07:52:50;;;;;;;19.50;11.68;;;;;;;;;;4995522;28;20475;-65
2021/12/15 07:55:16;;;;;;;24.27;12.35;;;;;;;;;;4996384;28;20061;-65
2021/12/15 07:57:42;;;;;;;18.13;10.70;;;;;;;;;;4995148;28;20018;-65
2021/12/15 08:00:09;;;;;;;25.08;11.65;;;;;;;;;;4995301;28;20026;-65
2021/12/15 08:02:38;;;;;;;21.95;11.07;;;;;;;;;;4995275;28;20042;-65
2021/12/15 08:05:05;;;;;;;18.15;10.65;;;;;;;;;;4995583;28;20124;-65
2021/12/15 08:07:31;;;;;;;20.65;11.00;;;;;;;;;;4996201;28;20041;-65
2021/12/15 08:09:58;;;;;;;16.90;9.65;;;;;;;;;;4993966;28;20057;-65
2021/12/15 08:12:26;;;;;;;23.63;9.88;;;;;;;;;;4991641;28;20030;-65
2021/12/15 08:14:52;;;;;;;20.05;10.57;;;;;;;;;;4992370;28;20033;-65
2021/12/15 08:17:20;;;;;;;18.65;10.73;;;;;;;;;;4992776;28;20498;-64
2021/12/15 08:19:46;;;;;;;21.10;11.48;;;;;;;;;;4992868;28;20065;-64
2021/12/15 08:22:12;;;;;;;20.45;10.65;;;;;;;;;;4993861;28;20034;-64
2021/12/15 08:24:38;;;;;;;19.20;10.15;;;;;;;;;;4992620;28;20057;-64
2021/12/15 08:27:04;;;;;;;18.52;10.35;;;;;;;;;;4991689;28;20026;-64
2021/12/15 08:29:31;;;;;;;16.75;9.85;;;;;;;;;;4992649;28;20030;-64
2021/12/15 08:31:57;;;;;;;16.00;10.35;;;;;;;;;;4991996;28;20026;-64
2021/12/15 08:34:23;;;;;;;21.77;10.75;;;;;;;;;;4989957;28;20513;-64
2021/12/15 08:36:51;;;;;;;25.63;10.40;;;;;;;;;;4990720;28;20088;-64
2021/12/15 08:39:18;;;;;;;17.80;10.93;;;;;;;;;;4990146;28;20030;-64
2021/12/15 08:41:44;;;;;;;19.92;10.80;;;;;;;;;;4988982;28;20034;-64
2021/12/15 08:44:10;;;;;;;19.70;9.98;;;;;;;;;;4993105;28;20034;-64
2021/12/15 08:46:41;;;;;;;16.33;10.23;;;;;;;;;;4990394;28;20038;-64
2021/12/15 08:49:09;;;;;;;22.17;10.70;;;;;;;;;;4986278;28;20029;-64
2021/12/15 08:51:36;;;;;;;19.35;10.82;;;;;;;;;;4990886;28;20130;-64
2021/12/15 08:54:14;;;;;;;17.10;10.00;;;;;;;;;;4991043;28;20113;-64
2021/12/15 08:56:41;;;;;;;16.17;10.18;;;;;;;;;;4988526;28;20061;-64
2021/12/15 08:59:07;;;;;;;22.63;10.57;;;;;;;;;;4990983;28;20550;-65
2021/12/15 09:01:34;;;;;;;20.15;10.38;;;;;;;;;;4990060;28;20400;-64
2021/12/15 09:04:00;;;;;;;16.08;9.32;;;;;;;;;;4990329;28;20515;-64
2021/12/15 09:06:27;;;;;;;17.08;9.55;;;;;;;;;;4991200;28;20103;-65
2021/12/15 09:08:53;;;;;;;19.95;10.15;;;;;;;;;;4991222;28;20033;-64
2021/12/15 09:11:21;;;;;;;17.90;9.98;;;;;;;;;;4991921;28;20568;-64
2021/12/15 09:13:49;;;;;;;20.27;9.98;;;;;;;;;;4991509;28;20031;-64
2021/12/15 09:16:16;;;;;;;17.73;9.25;;;;;;;;;;4990574;28;20030;-64
2021/12/15 09:18:44;;;;;;;20.92;9.25;;;;;;;;;;4987840;28;20030;-64
2021/12/15 09:21:11;;;;;;;18.77;10.18;;;;;;;;;;4991225;28;20124;-64
2021/12/15 09:23:38;;;;;;;19.40;9.93;;;;;;;;;;4990576;28;20450;-64
2021/12/15 09:26:05;;;;;;;18.02;9.38;;;;;;;;;;4990581;28;20517;-64
2021/12/15 09:28:32;;;;;;;14.20;8.80;;;;;;;;;;4992432;28;20105;-64
2021/12/15 09:30:59;;;;;;;17.08;8.13;;;;;;;;;;4992336;28;20026;-64
2021/12/15 09:33:28;;;;;;;21.52;9.20;;;;;;;;;;4990401;28;20057;-64
2021/12/15 09:35:55;;;;;;;14.23;8.70;;;;;;;;;;4992106;28;20030;-64
2021/12/15 09:38:22;;;;;;;17.58;8.50;;;;;;;;;;4991753;28;20556;-64
2021/12/15 09:40:49;;;;;;;23.05;8.60;;;;;;;;;;4984666;28;20026;-64
2021/12/15 09:43:16;;;;;;;17.90;8.35;;;;;;;;;;4989901;28;20030;-64
2021/12/15 10:05:02;;;;;;;12.77;7.50;;;;;;;;;;4965992;28;20030;-64
2021/12/15 10:18:42;;;;;;;15.20;8.68;;;;;;;;;;4966190;28;20130;-64
2021/12/15 10:21:18;;;;;;;21.60;8.93;;;;;;;;;;4969182;28;20035;-64
2021/12/15 10:23:45;;;;;;;16.33;8.38;;;;;;;;;;4970659;28;20031;-64
2021/12/15 10:26:11;;;;;;;15.63;8.50;;;;;;;;;;4969134;28;20085;-64
2021/12/15 10:28:39;;;;;;;23.17;11.13;;;;;;;;;;4968151;28;20498;-64
2021/12/15 10:31:11;;;;;;;20.30;9.88;;;;;;;;;;4967561;28;20407;-64
2021/12/15 10:33:41;;;;;;;19.08;9.02;;;;;;;;;;4968775;28;20535;-65
2021/12/15 10:36:15;;;;;;;17.48;8.98;;;;;;;;;;4986428;28;20140;-65
2021/12/15 10:38:44;;;;;;;18.02;9.02;;;;;;;;;;4988556;28;20122;-65
2021/12/15 10:41:10;;;;;;;16.77;8.10;;;;;;;;;;4993144;28;20045;-65
2021/12/15 10:43:42;;;;;;;16.88;8.45;;;;;;;;;;4989837;28;20414;-65
2021/12/15 10:46:11;;;;;;;17.55;9.75;;;;;;;;;;4991790;28;20030;-65
2021/12/15 10:48:52;;;;;;;18.10;9.07;;;;;;;;;;4991596;28;20078;-65
2021/12/15 10:51:27;;;;;;;19.45;9.48;;;;;;;;;;4991093;28;20030;-67
2021/12/15 10:53:55;;;;;;;19.20;9.00;;;;;;;;;;4991460;28;20058;-67
2021/12/15 10:56:23;;;;;;;15.02;8.27;;;;;;;;;;4991618;28;20026;-67
2021/12/15 10:58:51;;;;;;;14.82;7.63;;;;;;;;;;4991160;28;20022;-68
2021/12/15 11:01:35;;;;;;;14.18;7.60;;;;;;;;;;4988663;28;20053;-68
2021/12/15 11:04:02;;;;;;;15.73;7.45;;;;;;;;;;4991426;28;20053;-68
2021/12/15 11:06:33;;;;;;;17.13;8.57;;;;;;;;;;4991440;28;20525;-68
2021/12/15 11:09:14;;;;;;;13.85;7.07;;;;;;;;;;4986155;28;20085;-68
2021/12/15 11:12:00;;;;;;;13.52;8.57;;;;;;;;;;4990305;28;20047;-68
2021/12/15 11:14:33;;;;;;;13.95;7.65;;;;;;;;;;4990768;28;20391;-68
2021/12/15 11:17:28;;;;;;;17.17;7.97;;;;;;;;;;4988220;28;20026;-68
2021/12/15 11:20:15;;;;;;;18.55;9.07;;;;;;;;;;4987460;28;20459;-67
2021/12/15 11:22:47;;;;;;;16.98;8.30;;;;;;;;;;4977700;28;20050;-68
2021/12/15 11:25:13;;;;;;;16.53;9.60;;;;;;;;;;4983247;28;20065;-68
2021/12/15 11:27:39;;;;;;;16.23;8.63;;;;;;;;;;4983123;28;20054;-68
2021/12/15 11:30:08;;;;;;;20.60;10.25;;;;;;;;;;4987735;28;20611;-68
2021/12/15 11:32:48;;;;;;;20.50;10.95;;;;;;;;;;4988669;28;20121;-68
2021/12/15 11:35:17;;;;;;;23.40;11.90;;;;;;;;;;4985274;28;20042;-68
2021/12/15 11:37:49;;;;;;;22.63;11.52;;;;;;;;;;4988563;28;20026;-67
2021/12/15 11:40:17;;;;;;;29.80;13.18;;;;;;;;;;4988820;28;20031;-68
2021/12/15 11:42:44;;;;;;;28.38;13.38;;;;;;;;;;4987842;28;20034;-68
2021/12/15 11:45:11;;;;;;;23.20;13.48;;;;;;;;;;5005485;28;20049;-67
2021/12/15 11:47:37;;;;;;;33.75;17.05;;;;;;;;;;4992396;28;20038;-68
2021/12/15 11:50:10;;;;;;;36.70;18.85;;;;;;;;;;4991090;28;20026;-68
2021/12/15 11:52:39;;;;;;;40.20;18.70;;;;;;;;;;4993159;28;20077;-68
2021/12/15 11:55:07;;;;;;;44.53;20.42;;;;;;;;;;4994029;28;20324;-68
2021/12/15 11:57:33;;;;;;;47.70;21.73;;;;;;;;;;4993664;28;20585;-68
2021/12/15 12:00:05;;;;;;;37.15;19.20;;;;;;;;;;4985147;28;20066;-68
2021/12/15 12:02:38;;;;;;;31.63;16.83;;;;;;;;;;4990130;28;20033;-68
2021/12/15 12:05:09;;;;;;;24.48;12.57;;;;;;;;;;4991507;28;20022;-67
2021/12/15 12:07:47;;;;;;;23.08;11.93;;;;;;;;;;4994316;28;20364;-68
2021/12/15 12:10:34;;;;;;;22.00;10.95;;;;;;;;;;4992139;28;20490;-68
2021/12/15 12:13:08;;;;;;;21.10;11.15;;;;;;;;;;4989556;28;20034;-68
2021/12/15 12:15:44;;;;;;;19.88;10.20;;;;;;;;;;4990188;28;20030;-68
2021/12/15 12:18:13;;;;;;;17.88;10.07;;;;;;;;;;4991903;28;20072;-68
2021/12/15 12:20:44;;;;;;;16.65;9.52;;;;;;;;;;4989530;28;20113;-68
2021/12/15 12:23:12;;;;;;;19.38;10.40;;;;;;;;;;4991277;28;20105;-68
2021/12/15 12:25:40;;;;;;;21.05;10.50;;;;;;;;;;4993131;28;20039;-67
2021/12/15 12:28:08;;;;;;;18.15;10.68;;;;;;;;;;4990935;28;20030;-68
2021/12/15 12:30:39;;;;;;;18.63;10.68;;;;;;;;;;4989858;28;20033;-67
2021/12/15 12:33:08;;;;;;;24.08;9.88;;;;;;;;;;4992078;28;20398;-67
2021/12/15 12:35:36;;;;;;;24.95;10.68;;;;;;;;;;4993739;28;20521;-67
2021/12/15 12:38:06;;;;;;;19.98;9.70;;;;;;;;;;4991731;28;20031;-67
2021/12/15 12:40:34;;;;;;;18.52;9.73;;;;;;;;;;5007384;28;20447;-67
2021/12/15 12:43:00;;;;;;;19.67;9.18;;;;;;;;;;4992056;28;20037;-67
2021/12/15 12:45:35;;;;;;;17.38;9.60;;;;;;;;;;4991267;28;20573;-67
2021/12/15 12:48:28;;;;;;;14.30;8.45;;;;;;;;;;4990825;28;20513;-67
2021/12/15 12:59:42;;;;;;;19.70;9.07;;;;;;;;;;4990426;28;20026;-67
2021/12/15 13:02:29;;;;;;;17.60;8.68;;;;;;;;;;4987137;28;20034;-67
2021/12/15 13:04:56;;;;;;;16.42;9.05;;;;;;;;;;4993171;28;20041;-67
2021/12/15 13:07:40;;;;;;;16.75;9.57;;;;;;;;;;4988822;28;20116;-67
2021/12/15 13:10:07;;;;;;;17.63;9.60;;;;;;;;;;4989578;28;20070;-67
2021/12/15 13:12:37;;;;;;;16.85;8.95;;;;;;;;;;4990151;28;20034;-67
2021/12/15 13:15:04;;;;;;;21.67;11.63;;;;;;;;;;4992992;28;20034;-67
2021/12/15 13:17:36;;;;;;;23.75;10.10;;;;;;;;;;4989604;28;20022;-67
2021/12/15 13:20:04;;;;;;;22.17;13.70;;;;;;;;;;4992043;28;20036;-67
2021/12/15 13:22:43;;;;;;;26.42;12.95;;;;;;;;;;4992239;28;20044;-67
2021/12/15 13:31:11;;;;;;;23.25;12.50;;;;;;;;;;4988549;28;20038;-67
2021/12/15 13:33:39;;;;;;;21.08;12.52;;;;;;;;;;4991894;28;20050;-67
2021/12/15 13:36:07;;;;;;;20.85;12.20;;;;;;;;;;4991816;28;20502;-67
2021/12/15 13:38:40;;;;;;;17.58;11.38;;;;;;;;;;4991532;28;20037;-67
2021/12/15 13:41:10;;;;;;;23.25;13.25;;;;;;;;;;4992303;28;20027;-67
2021/12/15 13:43:39;;;;;;;21.52;12.43;;;;;;;;;;4991576;28;20034;-68
2021/12/15 13:46:08;;;;;;;26.98;13.02;;;;;;;;;;4994398;28;20081;-67
2021/12/15 13:48:52;;;;;;;22.73;12.13;;;;;;;;;;4992265;28;20041;-67
2021/12/15 13:51:38;;;;;;;18.55;11.07;;;;;;;;;;4986897;28;20035;-67
2021/12/15 13:54:04;;;;;;;23.00;10.85;;;;;;;;;;4991308;28;20026;-67
2021/12/15 13:56:53;;;;;;;18.25;9.60;;;;;;;;;;4991099;28;20038;-67
2021/12/15 13:59:30;;;;;;;19.58;10.90;;;;;;;;;;4991216;28;20052;-67
2021/12/15 14:02:10;;;;;;;22.33;10.60;;;;;;;;;;4991552;28;20030;-67
2021/12/15 14:04:42;;;;;;;19.95;10.50;;;;;;;;;;4993491;28;20482;-67
2021/12/15 14:07:27;;;;;;;20.90;10.50;;;;;;;;;;4991133;28;20038;-67
2021/12/15 14:09:53;;;;;;;15.57;9.15;;;;;;;;;;4989860;28;20069;-67
2021/12/15 14:12:45;;;;;;;17.55;9.50;;;;;;;;;;4992696;28;20494;-67
2021/12/15 14:15:11;;;;;;;22.83;11.10;;;;;;;;;;4984052;28;20076;-67
2021/12/15 14:17:37;;;;;;;21.25;10.68;;;;;;;;;;4992185;28;20038;-68
2021/12/15 14:20:17;;;;;;;18.83;9.65;;;;;;;;;;4989905;28;20073;-67
2021/12/15 14:22:44;;;;;;;18.00;9.15;;;;;;;;;;4985879;28;20070;-67
2021/12/15 14:25:10;;;;;;;21.15;9.82;;;;;;;;;;4992042;28;20099;-67
2021/12/15 14:27:36;;;;;;;19.27;10.25;;;;;;;;;;4991354;28;20455;-67
2021/12/15 14:30:09;;;;;;;23.83;9.93;;;;;;;;;;4990852;28;20586;-67
2021/12/15 14:32:35;;;;;;;22.55;9.57;;;;;;;;;;4991608;28;20026;-67
2021/12/15 14:35:01;;;;;;;22.35;9.77;;;;;;;;;;4989700;28;20141;-67
2021/12/15 14:37:28;;;;;;;19.08;9.50;;;;;;;;;;4990351;28;20451;-67
2021/12/15 14:39:55;;;;;;;16.17;8.68;;;;;;;;;;4990346;28;20030;-67
2021/12/15 14:42:24;;;;;;;16.25;8.85;;;;;;;;;;4990966;28;20034;-67
2021/12/15 14:44:55;;;;;;;16.50;9.65;;;;;;;;;;4990185;28;20033;-67
2021/12/15 14:47:23;;;;;;;18.15;9.43;;;;;;;;;;4989762;28;20026;-67
2021/12/15 14:49:51;;;;;;;25.85;10.80;;;;;;;;;;4986466;28;20031;-67
2021/12/15 14:52:17;;;;;;;18.75;10.15;;;;;;;;;;4989513;28;20109;-67
2021/12/15 14:54:44;;;;;;;17.02;9.63;;;;;;;;;;4990180;28;20031;-67
2021/12/15 14:57:15;;;;;;;18.02;9.43;;;;;;;;;;4989592;28;20026;-67
2021/12/15 14:59:42;;;;;;;16.83;9.63;;;;;;;;;;4990829;28;20060;-67
2021/12/15 15:02:10;;;;;;;16.75;8.48;;;;;;;;;;4989791;28;20034;-67
2021/12/15 15:04:37;;;;;;;17.02;8.40;;;;;;;;;;4989065;28;20038;-67
2021/12/15 15:07:06;;;;;;;17.75;9.38;;;;;;;;;;4988694;28;20037;-67
2021/12/15 15:09:37;;;;;;;20.23;8.73;;;;;;;;;;4990088;28;20034;-67
2021/12/15 15:12:05;;;;;;;20.63;8.40;;;;;;;;;;4989830;28;20030;-67
2021/12/15 15:14:34;;;;;;;16.98;8.70;;;;;;;;;;4987013;28;20030;-67
2021/12/15 15:17:01;;;;;;;17.85;8.88;;;;;;;;;;4987980;28;20026;-67
2021/12/15 15:19:28;;;;;;;14.73;8.63;;;;;;;;;;4985934;28;20042;-67
2021/12/15 15:21:57;;;;;;;13.65;7.55;;;;;;;;;;4993140;28;20082;-67
2021/12/15 15:24:25;;;;;;;13.15;7.75;;;;;;;;;;4991582;28;20030;-67
2021/12/15 15:26:55;;;;;;;16.75;8.77;;;;;;;;;;4995197;28;20033;-67
2021/12/15 15:29:29;;;;;;;16.48;8.68;;;;;;;;;;4993588;28;20048;-67
2021/12/15 15:31:55;;;;;;;17.80;8.55;;;;;;;;;;4994037;28;20030;-67
2021/12/15 15:34:25;;;;;;;14.90;7.78;;;;;;;;;;4988628;28;20042;-67
2021/12/15 15:36:51;;;;;;;12.52;7.45;;;;;;;;;;4993140;28;20033;-67
2021/12/15 15:39:17;;;;;;;14.77;8.10;;;;;;;;;;4992070;28;21118;-67
2021/12/15 15:41:47;;;;;;;14.85;7.85;;;;;;;;;;4992851;28;20038;-67
2021/12/15 15:44:13;;;;;;;18.98;7.93;;;;;;;;;;4993413;28;20050;-67
2021/12/15 15:46:41;;;;;;;16.80;7.85;;;;;;;;;;4994431;28;20537;-67
2021/12/15 15:49:12;;;;;;;15.77;8.13;;;;;;;;;;4995414;28;20030;-67
2021/12/15 15:51:39;;;;;;;15.60;7.72;;;;;;;;;;4991642;28;20113;-67
2021/12/15 15:54:17;;;;;;;16.25;8.27;;;;;;;;;;4993418;28;20169;-66
2021/12/15 15:56:45;;;;;;;15.90;8.45;;;;;;;;;;4991172;28;20027;-67
2021/12/15 15:59:14;;;;;;;16.92;8.98;;;;;;;;;;4989876;28;20045;-67
2021/12/15 16:01:41;;;;;;;20.35;9.27;;;;;;;;;;4994448;28;20379;-67